MSC Nuria — 3ESE2 — position and weather

sailwx.info

Track history (hours):
 
Tides and Currents Weather Stations Pressure Air Temp Water Temp Dewpoint Dewpoint Depression Visibility Wind Speed Wind Dir Waves Ship Positions

MSC Nuria

Last reported at 2014-Sep-18 23:22 UTC. Time now 2014-Sep-18 23:51 UTC.
Position N 54°45' E 016°08'.

Length 275 m; draft 10 m.

Type: Ship (hazmat cat A). MMSI: 370272977.

Date/timePositionNaut miles runAvg speedWind from/ knotsBaromVisibWave heightAir tempDewpointWater temp
2014-Sep-18 23:22N 54°45' E 016°08'1417.8
2014-Sep-18 22:34N 54°43' E 015°43'1817.9
2014-Sep-18 21:34N 54°39' E 015°12'1817.7
2014-Sep-18 20:33N 54°37' E 014°42'1717.1
2014-Sep-18 19:33N 54°38' E 014°13'1817.5
2014-Sep-18 18:34N 54°44' E 013°44'1817.8
2014-Sep-18 17:33N 54°50' E 013°15'1817.8
2014-Sep-18 16:33N 54°45' E 012°45'1616.0
2014-Sep-18 15:33N 54°37' E 012°21'1110.8
2014-Sep-18 14:33N 54°28' E 012°13'1312.8
2014-Sep-18 13:34N 54°25' E 011°51'1414.2
2014-Sep-18 12:33N 54°30' E 011°28'1414.1
2014-Sep-18 11:33N 54°35' E 011°06'1414.2
2014-Sep-18 10:33N 54°44' E 010°47'2016.7
2014-Sep-18 09:23N 55°02' E 010°60'1315.3
2014-Sep-18 08:32N 55°15' E 011°05'1716.9
2014-Sep-18 07:31N 55°30' E 010°52'1515.8
2014-Sep-18 06:33N 55°45' E 010°48'1515.3
2014-Sep-18 05:33N 55°59' E 011°01'1816.9
2014-Sep-18 04:29N 56°17' E 011°05'19 9.6
2014-Sep-18 02:33N 56°32' E 011°24'1312.9
2014-Sep-18 01:33N 56°40' E 011°42'1211.6
2014-Sep-18 00:33N 56°51' E 011°48'1414.0
2014-Sep-17 23:33N 57°05' E 011°40'1313.5
2014-Sep-17 22:33N 57°17' E 011°32'1313.4
2014-Sep-17 21:33N 57°29' E 011°21'1313.3
2014-Sep-17 20:34N 57°38' E 011°03'1414.4
2014-Sep-17 19:33N 57°48' E 010°42'4514.1
2014-Sep-17 16:23N 57°47' E 009°18'4514.2
2014-Sep-17 13:14N 57°31' E 007°60'1715.6
2014-Sep-17 12:10N 57°15' E 007°53'1015.6
2014-Sep-17 11:31N 57°05' E 007°49'1515.9
2014-Sep-17 10:33N 56°51' E 007°40'1615.8
2014-Sep-17 09:32N 56°36' E 007°27'1515.6
2014-Sep-17 08:33N 56°23' E 007°15'1615.7
2014-Sep-17 07:33N 56°09' E 007°02'1615.7
2014-Sep-17 06:33N 55°55' E 006°49'7514.9
2014-Sep-17 01:33N 54°40' E 007°01'1515.4
2014-Sep-17 00:33N 54°27' E 007°14'1615.6
2014-Sep-16 23:34N 54°13' E 007°27'1615.8
2014-Sep-16 22:33N 53°59' E 007°39'1212.3
2014-Sep-16 21:33N 53°52' E 007°56'1414.5
2014-Sep-16 20:34N 53°44' E 008°16'1312.5
2014-Sep-16 19:32N 53°35' E 008°32'0 0.1
2014-Sep-16 18:31N 53°35' E 008°32'0 0.0
2014-Sep-16 17:31N 53°35' E 008°32'0 0.0
2014-Sep-16 16:33N 53°35' E 008°32'0 0.0
2014-Sep-16 15:33N 53°35' E 008°32'0 0.0
2014-Sep-16 14:32N 53°35' E 008°32'0 0.0
2014-Sep-16 13:32N 53°35' E 008°32'0 0.0
2014-Sep-16 12:32N 53°35' E 008°32'0 0.0
2014-Sep-16 11:31N 53°35' E 008°32'0 0.0
2014-Sep-16 10:31N 53°35' E 008°32'0 0.0
2014-Sep-16 09:33N 53°35' E 008°32'0 0.0
2014-Sep-16 08:33N 53°35' E 008°32'0 0.0
2014-Sep-16 07:32N 53°35' E 008°32'0 0.0
2014-Sep-16 06:32N 53°35' E 008°32'0 0.0
2014-Sep-16 05:32N 53°35' E 008°32'0 0.0
2014-Sep-16 04:31N 53°35' E 008°32'0 0.0
2014-Sep-16 03:31N 53°35' E 008°32'1 1.2
2014-Sep-16 02:33N 53°36' E 008°31'1413.6
2014-Sep-16 01:33N 53°45' E 008°13'1515.0
2014-Sep-16 00:33N 53°52' E 007°51'1716.2
2014-Sep-15 23:31N 53°54' E 007°23'2521.7
2014-Sep-15 22:22N 53°48' E 006°42'1821.4
2014-Sep-15 21:33N 53°44' E 006°13'2121.4
2014-Sep-15 20:34N 53°36' E 005°40'2121.0
2014-Sep-15 19:34N 53°31' E 005°06'2020.2
2014-Sep-15 18:33N 53°19' E 004°38'2220.7
2014-Sep-15 17:29N 52°59' E 004°22'2120.3
2014-Sep-15 16:27N 52°43' E 003°59'2019.7
2014-Sep-15 15:26N 52°29' E 003°37'1820.4
2014-Sep-15 14:34N 52°12' E 003°28'2020.1
2014-Sep-15 13:33N 51°52' E 003°22'1514.7
2014-Sep-15 12:33N 51°39' E 003°11'1515.0
2014-Sep-15 11:31N 51°25' E 002°59'1818.1
2014-Sep-15 10:33N 51°25' E 003°27'1111.1
2014-Sep-15 09:34N 51°22' E 003°44'1111.3
2014-Sep-15 08:33N 51°24' E 004°02'10 9.9
2014-Sep-15 07:34N 51°21' E 004°17'1 0.6
2014-Sep-15 06:33N 51°21' E 004°18'2 1.6
2014-Sep-15 05:32N 51°19' E 004°20'0 0.0
2014-Sep-15 04:31N 51°19' E 004°20'0 0.0
2014-Sep-15 03:31N 51°19' E 004°20'0 0.0
2014-Sep-15 02:31N 51°19' E 004°20'0 0.0
2014-Sep-15 01:33N 51°19' E 004°20'0 0.0
2014-Sep-15 00:33N 51°19' E 004°20'0 0.0
2014-Sep-14 23:26N 51°19' E 004°20'0 0.0
2014-Sep-14 22:32N 51°19' E 004°20'0 0.0
2014-Sep-14 21:31N 51°19' E 004°20'0 0.0
2014-Sep-14 20:31N 51°19' E 004°20'0 0.0
2014-Sep-14 19:28N 51°19' E 004°20'0 0.0
2014-Sep-14 18:33N 51°19' E 004°20'0 0.0
2014-Sep-14 17:33N 51°19' E 004°20'0 0.0
2014-Sep-14 16:32N 51°19' E 004°20'0 0.0
2014-Sep-14 15:32N 51°19' E 004°20'0 0.0
2014-Sep-14 14:31N 51°19' E 004°20'0 0.0
2014-Sep-14 13:31N 51°19' E 004°20'0 0.0
2014-Sep-14 12:31N 51°19' E 004°20'0 0.0
2014-Sep-14 11:33N 51°19' E 004°20'0 0.0
2014-Sep-14 10:33N 51°19' E 004°20'0 0.0
2014-Sep-14 09:32N 51°19' E 004°20'0 0.0
2014-Sep-14 08:33N 51°19' E 004°20'2 2.0
2014-Sep-14 07:34N 51°21' E 004°17'0 0.3
2014-Sep-14 06:34N 51°21' E 004°17'6 5.9
2014-Sep-14 05:33N 51°22' E 004°08'8 8.1
2014-Sep-14 04:33N 51°22' E 003°55'1211.6
2014-Sep-14 03:33N 51°26' E 003°37'1211.9
2014-Sep-14 02:33N 51°24' E 003°18'1311.8
2014-Sep-14 01:26N 51°23' E 002°57'15 3.8
2014-Sep-13 21:32N 51°22' E 002°34'1515.7
2014-Sep-13 20:34N 51°15' E 002°12'1818.2
2014-Sep-13 19:34N 51°07' E 001°46'1918.5
2014-Sep-13 18:33N 50°52' E 001°28'1918.4
2014-Sep-13 17:30N 50°35' E 001°12'1718.3
2014-Sep-13 16:33N 50°27' E 000°49'1818.1
2014-Sep-13 15:33N 50°21' E 000°22'4117.2
2014-Sep-13 13:11N 49°45' W 000°08'1218.5
2014-Sep-13 12:33N 49°34' W 000°02'9 9.1
2014-Sep-13 11:33N 49°28' E 000°08'0 0.0
2014-Sep-13 10:32N 49°28' E 000°08'0 0.0
2014-Sep-13 09:32N 49°28' E 000°08'0 0.0
2014-Sep-13 08:31N 49°28' E 000°08'0 0.0
2014-Sep-13 07:31N 49°28' E 000°08'0 0.0
2014-Sep-13 06:34N 49°28' E 000°08'0 0.0
2014-Sep-13 05:30N 49°28' E 000°08'0 0.0
2014-Sep-13 04:33N 49°28' E 000°08'0 0.0
2014-Sep-13 03:32N 49°28' E 000°08'0 0.0
2014-Sep-13 02:29N 49°28' E 000°08'0 0.0
2014-Sep-13 01:28N 49°28' E 000°08'0 0.0
2014-Sep-13 00:31N 49°28' E 000°08'0 0.0
2014-Sep-12 23:33N 49°28' E 000°08'0 0.0
2014-Sep-12 22:33N 49°28' E 000°08'0 0.0
2014-Sep-12 21:33N 49°28' E 000°08'0 0.0
2014-Sep-12 20:32N 49°28' E 000°08'0 0.0
2014-Sep-12 19:32N 49°28' E 000°08'0 0.0
2014-Sep-12 18:33N 49°28' E 000°08'1 0.6
2014-Sep-12 17:33N 49°27' E 000°09'9 9.3
2014-Sep-12 16:33N 49°31' W 000°04'10 9.8
2014-Sep-12 15:34N 49°40' W 000°11'5714.2
2014-Sep-12 11:33N 50°32' E 000°22'1414.4
2014-Sep-12 10:33N 50°37' E 000°43'1616.5
2014-Sep-12 09:33N 50°48' E 001°04'1919.0
2014-Sep-12 08:32N 51°01' E 001°26'1919.1
2014-Sep-12 07:34N 51°14' E 001°47'1716.9
2014-Sep-12 06:33N 51°29' E 002°00'1615.6
2014-Sep-12 05:34N 51°40' E 002°18'6514.9
2014-Sep-12 01:12N 52°39' E 003°02'1117.1
2014-Sep-12 00:34N 52°49' E 003°10'1817.4
2014-Sep-11 23:33N 53°05' E 003°20'37517.7
2014-Sep-11 02:22N 57°49' E 010°33'1518.2
2014-Sep-11 01:32N 57°42' E 010°59'1919.3
2014-Sep-11 00:33N 57°29' E 011°24'1919.1
2014-Sep-10 23:33N 57°11' E 011°37'1919.3
2014-Sep-10 22:33N 56°53' E 011°49'1717.0
2014-Sep-10 21:33N 56°36' E 011°44'12512.5
2014-Sep-10 11:33N 54°31' E 011°29'1817.3
2014-Sep-10 10:30N 54°27' E 011°59'9 9.8
2014-Sep-10 09:34N 54°30' E 012°13'1212.1
2014-Sep-10 08:34N 54°40' E 012°26'1918.6
2014-Sep-10 07:34N 54°49' E 012°54'1918.8
2014-Sep-10 06:34N 54°51' E 013°27'2019.7
2014-Sep-10 05:34N 54°43' E 013°58'2119.4
2014-Sep-10 04:30N 54°39' E 014°32'12120.0
2014-Sep-09 22:26N 55°19' E 017°52'1719.2
2014-Sep-09 21:33N 55°23' E 018°21'  
Track history (hours):
 
Tides and Currents Weather Stations Pressure Air Temp Water Temp Dewpoint Dewpoint Depression Visibility Wind Speed Wind Dir Waves Ship Positions

MSC Nuria

Last reported at 2014-Sep-18 23:22 UTC. Time now 2014-Sep-18 23:51 UTC.
Position N 54°45' E 016°08'.

Length 275 m; draft 10 m.

Type: Ship (hazmat cat A). MMSI: 370272977.

Date/timePositionNaut miles runAvg speedWind from/ knotsBaromVisibWave heightAir tempDewpointWater temp
2014-Sep-18 23:22N 54°45' E 016°08'1417.8
2014-Sep-18 22:34N 54°43' E 015°43'1817.9
2014-Sep-18 21:34N 54°39' E 015°12'1817.7
2014-Sep-18 20:33N 54°37' E 014°42'1717.1
2014-Sep-18 19:33N 54°38' E 014°13'1817.5
2014-Sep-18 18:34N 54°44' E 013°44'1817.8
2014-Sep-18 17:33N 54°50' E 013°15'1817.8
2014-Sep-18 16:33N 54°45' E 012°45'1616.0
2014-Sep-18 15:33N 54°37' E 012°21'1110.8
2014-Sep-18 14:33N 54°28' E 012°13'1312.8
2014-Sep-18 13:34N 54°25' E 011°51'1414.2
2014-Sep-18 12:33N 54°30' E 011°28'1414.1
2014-Sep-18 11:33N 54°35' E 011°06'1414.2
2014-Sep-18 10:33N 54°44' E 010°47'2016.7
2014-Sep-18 09:23N 55°02' E 010°60'1315.3
2014-Sep-18 08:32N 55°15' E 011°05'1716.9
2014-Sep-18 07:31N 55°30' E 010°52'1515.8
2014-Sep-18 06:33N 55°45' E 010°48'1515.3
2014-Sep-18 05:33N 55°59' E 011°01'1816.9
2014-Sep-18 04:29N 56°17' E 011°05'19 9.6
2014-Sep-18 02:33N 56°32' E 011°24'1312.9
2014-Sep-18 01:33N 56°40' E 011°42'1211.6
2014-Sep-18 00:33N 56°51' E 011°48'1414.0
2014-Sep-17 23:33N 57°05' E 011°40'1313.5
2014-Sep-17 22:33N 57°17' E 011°32'1313.4
2014-Sep-17 21:33N 57°29' E 011°21'1313.3
2014-Sep-17 20:34N 57°38' E 011°03'1414.4
2014-Sep-17 19:33N 57°48' E 010°42'4514.1
2014-Sep-17 16:23N 57°47' E 009°18'4514.2
2014-Sep-17 13:14N 57°31' E 007°60'1715.6
2014-Sep-17 12:10N 57°15' E 007°53'1015.6
2014-Sep-17 11:31N 57°05' E 007°49'1515.9
2014-Sep-17 10:33N 56°51' E 007°40'1615.8
2014-Sep-17 09:32N 56°36' E 007°27'1515.6
2014-Sep-17 08:33N 56°23' E 007°15'1615.7
2014-Sep-17 07:33N 56°09' E 007°02'1615.7
2014-Sep-17 06:33N 55°55' E 006°49'7514.9
2014-Sep-17 01:33N 54°40' E 007°01'1515.4
2014-Sep-17 00:33N 54°27' E 007°14'1615.6
2014-Sep-16 23:34N 54°13' E 007°27'1615.8
2014-Sep-16 22:33N 53°59' E 007°39'1212.3
2014-Sep-16 21:33N 53°52' E 007°56'1414.5
2014-Sep-16 20:34N 53°44' E 008°16'1312.5
2014-Sep-16 19:32N 53°35' E 008°32'0 0.1
2014-Sep-16 18:31N 53°35' E 008°32'0 0.0
2014-Sep-16 17:31N 53°35' E 008°32'0 0.0
2014-Sep-16 16:33N 53°35' E 008°32'0 0.0
2014-Sep-16 15:33N 53°35' E 008°32'0 0.0
2014-Sep-16 14:32N 53°35' E 008°32'0 0.0
2014-Sep-16 13:32N 53°35' E 008°32'0 0.0
2014-Sep-16 12:32N 53°35' E 008°32'0 0.0
2014-Sep-16 11:31N 53°35' E 008°32'0 0.0
2014-Sep-16 10:31N 53°35' E 008°32'0 0.0
2014-Sep-16 09:33N 53°35' E 008°32'0 0.0
2014-Sep-16 08:33N 53°35' E 008°32'0 0.0
2014-Sep-16 07:32N 53°35' E 008°32'0 0.0
2014-Sep-16 06:32N 53°35' E 008°32'0 0.0
2014-Sep-16 05:32N 53°35' E 008°32'0 0.0
2014-Sep-16 04:31N 53°35' E 008°32'0 0.0
2014-Sep-16 03:31N 53°35' E 008°32'1 1.2
2014-Sep-16 02:33N 53°36' E 008°31'1413.6
2014-Sep-16 01:33N 53°45' E 008°13'1515.0
2014-Sep-16 00:33N 53°52' E 007°51'1716.2
2014-Sep-15 23:31N 53°54' E 007°23'2521.7
2014-Sep-15 22:22N 53°48' E 006°42'1821.4
2014-Sep-15 21:33N 53°44' E 006°13'2121.4
2014-Sep-15 20:34N 53°36' E 005°40'2121.0
2014-Sep-15 19:34N 53°31' E 005°06'2020.2
2014-Sep-15 18:33N 53°19' E 004°38'2220.7
2014-Sep-15 17:29N 52°59' E 004°22'2120.3
2014-Sep-15 16:27N 52°43' E 003°59'2019.7
2014-Sep-15 15:26N 52°29' E 003°37'1820.4
2014-Sep-15 14:34N 52°12' E 003°28'2020.1
2014-Sep-15 13:33N 51°52' E 003°22'1514.7
2014-Sep-15 12:33N 51°39' E 003°11'1515.0
2014-Sep-15 11:31N 51°25' E 002°59'1818.1
2014-Sep-15 10:33N 51°25' E 003°27'1111.1
2014-Sep-15 09:34N 51°22' E 003°44'1111.3
2014-Sep-15 08:33N 51°24' E 004°02'10 9.9
2014-Sep-15 07:34N 51°21' E 004°17'1 0.6
2014-Sep-15 06:33N 51°21' E 004°18'2 1.6
2014-Sep-15 05:32N 51°19' E 004°20'0 0.0
2014-Sep-15 04:31N 51°19' E 004°20'0 0.0
2014-Sep-15 03:31N 51°19' E 004°20'0 0.0
2014-Sep-15 02:31N 51°19' E 004°20'0 0.0
2014-Sep-15 01:33N 51°19' E 004°20'0 0.0
2014-Sep-15 00:33N 51°19' E 004°20'0 0.0
2014-Sep-14 23:26N 51°19' E 004°20'0 0.0
2014-Sep-14 22:32N 51°19' E 004°20'0 0.0
2014-Sep-14 21:31N 51°19' E 004°20'0 0.0
2014-Sep-14 20:31N 51°19' E 004°20'0 0.0
2014-Sep-14 19:28N 51°19' E 004°20'0 0.0
2014-Sep-14 18:33N 51°19' E 004°20'0 0.0
2014-Sep-14 17:33N 51°19' E 004°20'0 0.0
2014-Sep-14 16:32N 51°19' E 004°20'0 0.0
2014-Sep-14 15:32N 51°19' E 004°20'0 0.0
2014-Sep-14 14:31N 51°19' E 004°20'0 0.0
2014-Sep-14 13:31N 51°19' E 004°20'0 0.0
2014-Sep-14 12:31N 51°19' E 004°20'0 0.0
2014-Sep-14 11:33N 51°19' E 004°20'0 0.0
2014-Sep-14 10:33N 51°19' E 004°20'0 0.0
2014-Sep-14 09:32N 51°19' E 004°20'0 0.0
2014-Sep-14 08:33N 51°19' E 004°20'2 2.0
2014-Sep-14 07:34N 51°21' E 004°17'0 0.3
2014-Sep-14 06:34N 51°21' E 004°17'6 5.9
2014-Sep-14 05:33N 51°22' E 004°08'8 8.1
2014-Sep-14 04:33N 51°22' E 003°55'1211.6
2014-Sep-14 03:33N 51°26' E 003°37'1211.9
2014-Sep-14 02:33N 51°24' E 003°18'1311.8
2014-Sep-14 01:26N 51°23' E 002°57'15 3.8
2014-Sep-13 21:32N 51°22' E 002°34'1515.7
2014-Sep-13 20:34N 51°15' E 002°12'1818.2
2014-Sep-13 19:34N 51°07' E 001°46'1918.5
2014-Sep-13 18:33N 50°52' E 001°28'1918.4
2014-Sep-13 17:30N 50°35' E 001°12'1718.3
2014-Sep-13 16:33N 50°27' E 000°49'1818.1
2014-Sep-13 15:33N 50°21' E 000°22'4117.2
2014-Sep-13 13:11N 49°45' W 000°08'1218.5
2014-Sep-13 12:33N 49°34' W 000°02'9 9.1
2014-Sep-13 11:33N 49°28' E 000°08'0 0.0
2014-Sep-13 10:32N 49°28' E 000°08'0 0.0
2014-Sep-13 09:32N 49°28' E 000°08'0 0.0
2014-Sep-13 08:31N 49°28' E 000°08'0 0.0
2014-Sep-13 07:31N 49°28' E 000°08'0 0.0
2014-Sep-13 06:34N 49°28' E 000°08'0 0.0
2014-Sep-13 05:30N 49°28' E 000°08'0 0.0
2014-Sep-13 04:33N 49°28' E 000°08'0 0.0
2014-Sep-13 03:32N 49°28' E 000°08'0 0.0
2014-Sep-13 02:29N 49°28' E 000°08'0 0.0
2014-Sep-13 01:28N 49°28' E 000°08'0 0.0
2014-Sep-13 00:31N 49°28' E 000°08'0 0.0
2014-Sep-12 23:33N 49°28' E 000°08'0 0.0
2014-Sep-12 22:33N 49°28' E 000°08'0 0.0
2014-Sep-12 21:33N 49°28' E 000°08'0 0.0
2014-Sep-12 20:32N 49°28' E 000°08'0 0.0
2014-Sep-12 19:32N 49°28' E 000°08'0 0.0
2014-Sep-12 18:33N 49°28' E 000°08'1 0.6
2014-Sep-12 17:33N 49°27' E 000°09'9 9.3
2014-Sep-12 16:33N 49°31' W 000°04'10 9.8
2014-Sep-12 15:34N 49°40' W 000°11'5714.2
2014-Sep-12 11:33N 50°32' E 000°22'1414.4
2014-Sep-12 10:33N 50°37' E 000°43'1616.5
2014-Sep-12 09:33N 50°48' E 001°04'1919.0
2014-Sep-12 08:32N 51°01' E 001°26'1919.1
2014-Sep-12 07:34N 51°14' E 001°47'1716.9
2014-Sep-12 06:33N 51°29' E 002°00'1615.6
2014-Sep-12 05:34N 51°40' E 002°18'6514.9
2014-Sep-12 01:12N 52°39' E 003°02'1117.1
2014-Sep-12 00:34N 52°49' E 003°10'1817.4
2014-Sep-11 23:33N 53°05' E 003°20'37517.7
2014-Sep-11 02:22N 57°49' E 010°33'1518.2
2014-Sep-11 01:32N 57°42' E 010°59'1919.3
2014-Sep-11 00:33N 57°29' E 011°24'1919.1
2014-Sep-10 23:33N 57°11' E 011°37'1919.3
2014-Sep-10 22:33N 56°53' E 011°49'1717.0
2014-Sep-10 21:33N 56°36' E 011°44'12512.5
2014-Sep-10 11:33N 54°31' E 011°29'1817.3
2014-Sep-10 10:30N 54°27' E 011°59'9 9.8
2014-Sep-10 09:34N 54°30' E 012°13'1212.1
2014-Sep-10 08:34N 54°40' E 012°26'1918.6
2014-Sep-10 07:34N 54°49' E 012°54'1918.8
2014-Sep-10 06:34N 54°51' E 013°27'2019.7
2014-Sep-10 05:34N 54°43' E 013°58'2119.4
2014-Sep-10 04:30N 54°39' E 014°32'12120.0
2014-Sep-09 22:26N 55°19' E 017°52'1719.2
2014-Sep-09 21:33N 55°23' E 018°21'  

Dump ship's entire track history